createdAt,value
2022-08-29T00:00:17.980Z,102197.00
2022-08-29T00:02:49.617Z,102203.00
2022-08-29T00:05:17.209Z,102197.00
2022-08-29T00:07:43.669Z,102200.00
2022-08-29T00:10:10.221Z,102193.00
2022-08-29T00:12:37.389Z,102196.00
2022-08-29T00:15:05.556Z,102204.00
2022-08-29T00:17:32.039Z,102201.00
2022-08-29T00:19:58.517Z,102203.00
2022-08-29T00:22:25.080Z,102198.00
2022-08-29T00:24:51.560Z,102196.00
2022-08-29T00:27:18.045Z,102197.00
2022-08-29T00:29:44.516Z,102195.00
2022-08-29T00:32:11.014Z,102209.00
2022-08-29T00:34:37.542Z,102211.00
2022-08-29T00:37:04.171Z,102204.00
2022-08-29T00:39:30.702Z,102203.00
2022-08-29T00:41:59.552Z,102202.00
2022-08-29T00:44:26.845Z,102213.00
2022-08-29T00:46:55.376Z,102210.00
2022-08-29T00:49:28.623Z,102210.00
2022-08-29T00:51:56.114Z,102202.00
2022-08-29T00:54:22.913Z,102201.00
2022-08-29T00:56:49.776Z,102214.00
2022-08-29T00:59:25.986Z,102206.00
2022-08-29T01:01:54.198Z,102206.00
2022-08-29T01:04:23.812Z,102207.00
2022-08-29T01:06:51.367Z,102214.00
2022-08-29T01:09:18.078Z,102210.00
2022-08-29T01:12:03.351Z,102215.00
2022-08-29T01:14:29.897Z,102218.00
2022-08-29T01:16:58.436Z,102213.00
2022-08-29T01:19:28.073Z,102222.00
2022-08-29T01:22:03.195Z,102221.00
2022-08-29T01:24:29.802Z,102223.00
2022-08-29T01:26:57.304Z,102212.00
2022-08-29T01:29:23.777Z,102208.00
2022-08-29T01:31:56.807Z,102207.00
2022-08-29T01:34:25.923Z,102217.00
2022-08-29T01:37:04.533Z,102213.00
2022-08-29T01:39:32.818Z,102210.00
2022-08-29T01:42:01.430Z,102210.00
2022-08-29T01:44:28.065Z,102213.00
2022-08-29T01:47:00.262Z,102212.00
2022-08-29T01:49:28.882Z,102216.00
2022-08-29T01:51:55.382Z,102216.00
2022-08-29T01:54:21.920Z,102218.00
2022-08-29T01:56:52.146Z,102217.00
2022-08-29T01:59:20.394Z,102214.00
2022-08-29T02:01:49.840Z,102221.00
2022-08-29T02:04:16.408Z,102218.00
2022-08-29T02:06:43.019Z,102217.00
2022-08-29T02:09:11.326Z,102223.00
2022-08-29T02:11:39.932Z,102228.00
2022-08-29T02:14:06.942Z,102224.00
2022-08-29T02:16:33.448Z,102219.00
2022-08-29T02:19:00.223Z,102221.00
2022-08-29T02:21:27.960Z,102216.00
2022-08-29T02:23:55.444Z,102212.00
2022-08-29T02:26:22.115Z,102219.00
2022-08-29T02:28:51.674Z,102207.00
2022-08-29T02:31:22.776Z,102209.00
2022-08-29T02:33:49.446Z,102210.00
2022-08-29T02:36:16.075Z,102213.00
2022-08-29T02:38:45.118Z,102208.00
2022-08-29T02:41:14.278Z,102212.00
2022-08-29T02:43:41.274Z,102206.00
2022-08-29T02:46:08.095Z,102207.00
2022-08-29T02:48:34.779Z,102211.00
2022-08-29T02:51:01.448Z,102210.00
2022-08-29T02:53:29.362Z,102211.00
2022-08-29T02:55:55.900Z,102210.00
2022-08-29T02:58:23.096Z,102212.00
2022-08-29T03:00:50.068Z,102206.00
2022-08-29T03:03:18.190Z,102195.00
2022-08-29T03:05:44.916Z,102200.00
2022-08-29T03:08:14.059Z,102196.00
2022-08-29T03:10:41.298Z,102196.00
2022-08-29T03:13:07.997Z,102202.00
2022-08-29T03:15:34.640Z,102202.00
2022-08-29T03:18:01.606Z,102193.00
2022-08-29T03:20:28.714Z,102191.00
2022-08-29T03:22:57.438Z,102193.00
2022-08-29T03:25:24.278Z,102201.00
2022-08-29T03:27:50.875Z,102198.00
2022-08-29T03:30:17.711Z,102192.00
2022-08-29T03:32:44.884Z,102199.00
2022-08-29T03:35:11.477Z,102199.00
2022-08-29T03:37:38.256Z,102205.00
2022-08-29T03:40:07.539Z,102209.00
2022-08-29T03:42:34.056Z,102200.00
2022-08-29T03:45:02.331Z,102198.00
2022-08-29T03:47:28.952Z,102200.00
2022-08-29T03:49:55.416Z,102195.00
2022-08-29T03:52:21.924Z,102191.00
2022-08-29T03:54:48.457Z,102190.00
2022-08-29T03:57:14.922Z,102189.00
2022-08-29T03:59:43.162Z,102195.00
2022-08-29T04:02:09.899Z,102189.00
2022-08-29T04:04:55.432Z,102191.00
2022-08-29T04:07:21.910Z,102190.00
2022-08-29T04:09:48.499Z,102191.00
2022-08-29T04:12:15.538Z,102191.00
2022-08-29T04:14:42.783Z,102195.00
2022-08-29T04:17:10.392Z,102194.00
2022-08-29T04:19:36.978Z,102191.00
2022-08-29T04:22:04.740Z,102197.00
2022-08-29T04:24:31.720Z,102204.00
2022-08-29T04:26:58.536Z,102207.00
2022-08-29T04:29:25.990Z,102213.00
2022-08-29T04:31:52.436Z,102206.00
2022-08-29T04:34:19.040Z,102204.00
2022-08-29T04:36:45.625Z,102210.00
2022-08-29T04:39:12.344Z,102207.00
2022-08-29T04:41:40.002Z,102207.00
2022-08-29T04:44:08.073Z,102207.00
2022-08-29T04:46:34.588Z,102203.00
2022-08-29T04:49:04.164Z,102202.00
2022-08-29T04:51:32.158Z,102211.00
2022-08-29T04:53:58.670Z,102207.00
2022-08-29T04:56:25.255Z,102208.00
2022-08-29T04:58:52.201Z,102209.00
2022-08-29T05:01:22.610Z,102214.00
2022-08-29T05:03:49.391Z,102218.00
2022-08-29T05:06:16.845Z,102214.00
2022-08-29T05:08:45.917Z,102219.00
2022-08-29T05:11:22.689Z,102215.00
2022-08-29T05:13:49.840Z,102223.00
2022-08-29T05:16:17.362Z,102220.00
2022-08-29T05:18:46.894Z,102224.00
2022-08-29T05:21:13.931Z,102222.00
2022-08-29T05:23:40.802Z,102227.00
2022-08-29T05:26:07.420Z,102229.00
2022-08-29T05:28:34.632Z,102229.00
2022-08-29T05:31:01.500Z,102228.00
2022-08-29T05:33:28.001Z,102236.00
2022-08-29T05:35:54.636Z,102239.00
2022-08-29T05:38:21.539Z,102240.00
2022-08-29T05:40:48.091Z,102237.00
2022-08-29T05:43:14.712Z,102242.00
2022-08-29T05:45:41.818Z,102245.00
2022-08-29T05:48:09.460Z,102248.00
2022-08-29T05:50:40.912Z,102250.00
2022-08-29T05:53:08.079Z,102245.00
2022-08-29T05:55:38.809Z,102249.00
2022-08-29T05:58:06.962Z,102257.00
2022-08-29T06:00:33.673Z,102261.00
2022-08-29T06:03:01.294Z,102265.00
2022-08-29T06:05:27.884Z,102263.00
2022-08-29T06:07:54.425Z,102268.00
2022-08-29T06:10:20.898Z,102264.00
2022-08-29T06:12:47.483Z,102258.00
2022-08-29T06:15:13.947Z,102266.00
2022-08-29T06:17:40.524Z,102267.00
2022-08-29T06:20:09.565Z,102269.00
2022-08-29T06:22:40.133Z,102270.00
2022-08-29T06:25:35.041Z,102262.00
2022-08-29T06:27:54.441Z,102259.00
2022-08-29T06:30:20.906Z,102255.00
2022-08-29T06:32:47.395Z,102250.00
2022-08-29T06:35:13.895Z,102256.00
2022-08-29T06:37:41.718Z,102261.00
2022-08-29T06:40:08.527Z,102262.00
2022-08-29T06:42:35.119Z,102259.00
2022-08-29T06:45:01.617Z,102257.00
2022-08-29T06:47:28.163Z,102251.00
2022-08-29T06:49:54.607Z,102257.00
2022-08-29T06:52:21.047Z,102243.00
2022-08-29T06:54:48.032Z,102244.00
2022-08-29T06:57:14.544Z,102248.00
2022-08-29T06:59:41.072Z,102253.00
2022-08-29T07:02:07.557Z,102254.00
2022-08-29T07:04:34.163Z,102249.00
2022-08-29T07:07:01.658Z,102251.00
2022-08-29T07:09:31.021Z,102243.00
2022-08-29T07:11:57.563Z,102255.00
2022-08-29T07:14:24.048Z,102257.00
2022-08-29T07:16:50.555Z,102254.00
2022-08-29T07:19:17.073Z,102249.00
2022-08-29T07:21:43.593Z,102257.00
2022-08-29T07:24:10.139Z,102250.00
2022-08-29T07:26:41.454Z,102256.00
2022-08-29T07:29:10.060Z,102253.00
2022-08-29T07:31:36.700Z,102261.00
2022-08-29T07:34:03.433Z,102266.00
2022-08-29T07:36:30.671Z,102265.00
2022-08-29T07:38:57.158Z,102262.00
2022-08-29T07:41:24.898Z,102257.00
2022-08-29T07:43:51.513Z,102257.00
2022-08-29T07:46:19.056Z,102255.00
2022-08-29T07:48:45.698Z,102259.00
2022-08-29T07:51:14.174Z,102268.00
2022-08-29T07:53:41.207Z,102264.00
2022-08-29T07:56:18.955Z,102263.00
2022-08-29T07:58:45.534Z,102270.00
2022-08-29T08:01:20.571Z,102259.00
2022-08-29T08:03:48.227Z,102262.00
2022-08-29T08:06:14.788Z,102256.00
2022-08-29T08:08:41.651Z,102253.00
2022-08-29T08:11:08.795Z,102254.00
2022-08-29T08:13:35.962Z,102253.00
2022-08-29T08:16:06.531Z,102254.00
2022-08-29T08:18:34.820Z,102250.00
2022-08-29T08:21:01.267Z,102259.00
2022-08-29T08:23:27.763Z,102254.00
2022-08-29T08:25:54.375Z,102265.00
2022-08-29T08:28:20.991Z,102262.00
2022-08-29T08:30:47.510Z,102270.00
2022-08-29T08:33:14.159Z,102272.00
2022-08-29T08:35:42.300Z,102271.00
2022-08-29T08:38:09.205Z,102263.00
2022-08-29T08:40:40.148Z,102263.00
2022-08-29T08:43:08.465Z,102262.00
2022-08-29T08:45:35.052Z,102264.00
2022-08-29T08:48:19.551Z,102258.00
2022-08-29T08:50:54.664Z,102263.00
2022-08-29T08:53:41.410Z,102282.00
2022-08-29T08:56:17.123Z,102269.00
2022-08-29T08:59:02.031Z,102267.00
2022-08-29T09:01:29.136Z,102270.00
2022-08-29T09:04:01.837Z,102278.00
2022-08-29T09:06:40.808Z,102277.00
2022-08-29T09:09:25.994Z,102270.00
2022-08-29T09:11:54.747Z,102274.00
2022-08-29T09:14:24.251Z,102281.00
2022-08-29T09:16:53.495Z,102276.00
2022-08-29T09:19:20.659Z,102268.00
2022-08-29T09:21:53.798Z,102269.00
2022-08-29T09:24:26.110Z,102267.00
2022-08-29T09:26:52.588Z,102259.00
2022-08-29T09:29:21.056Z,102263.00
2022-08-29T09:32:02.871Z,102263.00
2022-08-29T09:34:57.044Z,102270.00
2022-08-29T09:37:27.200Z,102258.00
2022-08-29T09:40:03.171Z,102257.00
2022-08-29T09:42:34.175Z,102252.00
2022-08-29T09:45:03.929Z,102258.00
2022-08-29T09:47:32.219Z,102263.00
2022-08-29T09:50:07.892Z,102267.00
2022-08-29T09:52:36.279Z,102258.00
2022-08-29T09:55:20.287Z,102264.00
2022-08-29T09:58:10.322Z,102253.00
2022-08-29T10:00:38.833Z,102247.00
2022-08-29T10:03:06.924Z,102251.00
2022-08-29T10:05:41.518Z,102248.00
2022-08-29T10:08:24.347Z,102245.00
2022-08-29T10:10:55.699Z,102242.00
2022-08-29T10:13:23.558Z,102250.00
2022-08-29T10:16:07.758Z,102244.00
2022-08-29T10:18:52.893Z,102242.00
2022-08-29T10:21:24.423Z,102238.00
2022-08-29T10:24:01.467Z,102255.00
2022-08-29T10:26:33.954Z,102251.00
2022-08-29T10:29:19.223Z,102250.00
2022-08-29T10:31:48.885Z,102255.00
2022-08-29T10:34:33.478Z,102246.00
2022-08-29T10:37:26.648Z,102244.00
2022-08-29T10:40:00.160Z,102237.00
2022-08-29T10:42:29.109Z,102242.00
2022-08-29T10:45:01.591Z,102239.00
2022-08-29T10:47:34.169Z,102241.00
2022-08-29T10:50:27.603Z,102239.00
2022-08-29T10:53:09.922Z,102246.00
2022-08-29T10:55:39.360Z,102239.00
2022-08-29T10:58:30.335Z,102235.00
2022-08-29T11:01:23.388Z,102240.00
2022-08-29T11:03:58.595Z,102239.00
2022-08-29T11:06:28.937Z,102241.00
2022-08-29T11:09:15.743Z,102230.00
2022-08-29T11:11:46.363Z,102233.00
2022-08-29T11:14:24.463Z,102234.00
2022-08-29T11:16:52.625Z,102241.00
2022-08-29T11:19:29.095Z,102237.00
2022-08-29T11:22:09.809Z,102224.00
2022-08-29T11:24:37.998Z,102227.00
2022-08-29T11:27:23.938Z,102225.00
2022-08-29T11:29:57.409Z,102227.00
2022-08-29T11:32:30.099Z,102228.00
2022-08-29T11:35:09.078Z,102228.00
2022-08-29T11:37:45.577Z,102219.00
2022-08-29T11:40:47.323Z,102222.00
2022-08-29T11:43:17.313Z,102204.00
2022-08-29T11:45:44.120Z,102219.00
2022-08-29T11:48:10.533Z,102217.00
2022-08-29T11:50:38.279Z,102213.00
2022-08-29T11:53:07.881Z,102205.00
2022-08-29T11:55:37.649Z,102201.00
2022-08-29T11:58:09.832Z,102199.00
2022-08-29T12:00:40.379Z,102210.00
2022-08-29T12:03:29.009Z,102199.00
2022-08-29T12:06:14.565Z,102201.00
2022-08-29T12:09:04.832Z,102210.00
2022-08-29T12:11:51.579Z,102206.00
2022-08-29T12:14:38.392Z,102207.00
2022-08-29T12:17:06.871Z,102204.00
2022-08-29T12:19:46.119Z,102197.00
2022-08-29T12:22:32.583Z,102204.00
2022-08-29T12:24:59.095Z,102202.00
2022-08-29T12:27:45.711Z,102195.00
2022-08-29T12:30:13.668Z,102193.00
2022-08-29T12:32:49.020Z,102201.00
2022-08-29T12:35:24.710Z,102192.00
2022-08-29T12:37:51.109Z,102189.00
2022-08-29T12:40:23.754Z,102185.00
2022-08-29T12:42:51.563Z,102191.00
2022-08-29T12:45:20.277Z,102187.00
2022-08-29T12:47:46.735Z,102183.00
2022-08-29T12:50:15.340Z,102180.00
2022-08-29T12:52:41.839Z,102179.00
2022-08-29T12:55:29.098Z,102177.00
2022-08-29T12:57:56.852Z,102176.00
2022-08-29T13:00:25.312Z,102185.00
2022-08-29T13:02:57.954Z,102182.00
2022-08-29T13:05:28.844Z,102187.00
2022-08-29T13:08:00.654Z,102179.00
2022-08-29T13:10:27.858Z,102176.00
2022-08-29T13:13:11.097Z,102170.00
2022-08-29T13:15:37.694Z,102165.00
2022-08-29T13:18:04.900Z,102163.00
2022-08-29T13:20:37.701Z,102170.00
2022-08-29T13:23:05.588Z,102167.00
2022-08-29T13:25:33.170Z,102172.00
2022-08-29T13:28:01.771Z,102177.00
2022-08-29T13:30:28.550Z,102174.00
2022-08-29T13:32:55.101Z,102161.00
2022-08-29T13:35:32.592Z,102159.00
2022-08-29T13:38:19.457Z,102177.00
2022-08-29T13:40:49.854Z,102174.00
2022-08-29T13:43:35.069Z,102183.00
2022-08-29T13:46:24.697Z,102181.00
2022-08-29T13:48:57.711Z,102196.00
2022-08-29T13:51:24.302Z,102193.00
2022-08-29T13:53:53.925Z,102186.00
2022-08-29T13:56:31.970Z,102190.00
2022-08-29T13:59:00.170Z,102178.00
2022-08-29T14:01:30.661Z,102180.00
2022-08-29T14:03:59.273Z,102167.00
2022-08-29T14:06:27.945Z,102157.00
2022-08-29T14:08:54.821Z,102160.00
2022-08-29T14:11:21.388Z,102150.00
2022-08-29T14:13:49.274Z,102157.00
2022-08-29T14:16:16.094Z,102152.00
2022-08-29T14:18:42.879Z,102152.00
2022-08-29T14:21:09.366Z,102139.00
2022-08-29T14:23:35.882Z,102143.00
2022-08-29T14:26:02.415Z,102143.00
2022-08-29T14:28:28.983Z,102140.00
2022-08-29T14:30:55.498Z,102138.00
2022-08-29T14:33:23.588Z,102141.00
2022-08-29T14:35:50.718Z,102141.00
2022-08-29T14:38:17.550Z,102139.00
2022-08-29T14:40:44.322Z,102147.00
2022-08-29T14:43:10.825Z,102138.00
2022-08-29T14:45:37.525Z,102143.00
2022-08-29T14:48:04.933Z,102142.00
2022-08-29T14:50:31.450Z,102138.00
2022-08-29T14:52:57.954Z,102138.00
2022-08-29T14:55:24.578Z,102137.00
2022-08-29T14:57:51.534Z,102126.00
2022-08-29T15:00:22.389Z,102127.00
2022-08-29T15:02:49.187Z,102127.00
2022-08-29T15:05:15.814Z,102122.00
2022-08-29T15:07:42.790Z,102119.00
2022-08-29T15:10:10.894Z,102121.00
2022-08-29T15:12:37.529Z,102126.00
2022-08-29T15:15:04.272Z,102114.00
2022-08-29T15:17:30.856Z,102118.00
2022-08-29T15:20:34.929Z,102115.00
2022-08-29T15:22:44.113Z,102119.00
2022-08-29T15:25:10.625Z,102126.00
2022-08-29T15:27:37.145Z,102115.00
2022-08-29T15:30:04.359Z,102126.00
2022-08-29T15:32:31.104Z,102120.00
2022-08-29T15:34:57.662Z,102117.00
2022-08-29T15:37:24.410Z,102122.00
2022-08-29T15:39:54.685Z,102121.00
2022-08-29T15:42:28.525Z,102118.00
2022-08-29T15:44:55.129Z,102118.00
2022-08-29T15:47:22.175Z,102111.00
2022-08-29T15:49:52.943Z,102117.00
2022-08-29T15:52:19.425Z,102118.00
2022-08-29T15:54:45.906Z,102116.00
2022-08-29T15:57:12.424Z,102119.00
2022-08-29T15:59:57.774Z,102119.00
2022-08-29T16:02:25.318Z,102112.00
2022-08-29T16:04:56.404Z,102117.00
2022-08-29T16:07:23.305Z,102117.00
2022-08-29T16:09:55.529Z,102108.00
2022-08-29T16:12:22.527Z,102106.00
2022-08-29T16:15:08.979Z,102104.00
2022-08-29T16:17:36.242Z,102112.00
2022-08-29T16:20:03.199Z,102094.00
2022-08-29T16:22:29.826Z,102102.00
2022-08-29T16:24:56.305Z,102097.00
2022-08-29T16:27:24.225Z,102094.00
2022-08-29T16:29:54.082Z,102094.00
2022-08-29T16:32:20.997Z,102095.00
2022-08-29T16:34:47.481Z,102105.00
2022-08-29T16:37:14.634Z,102109.00
2022-08-29T16:39:41.130Z,102111.00
2022-08-29T16:42:07.640Z,102107.00
2022-08-29T16:44:34.170Z,102109.00
2022-08-29T16:47:01.478Z,102108.00
2022-08-29T16:49:27.933Z,102110.00
2022-08-29T16:51:54.353Z,102112.00
2022-08-29T16:54:20.859Z,102107.00
2022-08-29T16:56:47.396Z,102101.00
2022-08-29T16:59:13.946Z,102100.00
2022-08-29T17:01:44.955Z,102102.00
2022-08-29T17:04:22.255Z,102106.00
2022-08-29T17:06:48.743Z,102103.00
2022-08-29T17:09:16.380Z,102091.00
2022-08-29T17:11:43.109Z,102100.00
2022-08-29T17:14:09.930Z,102103.00
2022-08-29T17:16:37.622Z,102102.00
2022-08-29T17:19:04.787Z,102095.00
2022-08-29T17:21:31.938Z,102091.00
2022-08-29T17:23:58.486Z,102091.00
2022-08-29T17:26:25.104Z,102089.00
2022-08-29T17:28:51.652Z,102089.00
2022-08-29T17:31:18.555Z,102087.00
2022-08-29T17:33:46.039Z,102088.00
2022-08-29T17:36:12.682Z,102089.00
2022-08-29T17:38:40.391Z,102089.00
2022-08-29T17:41:14.949Z,102095.00
2022-08-29T17:43:44.044Z,102088.00
2022-08-29T17:46:10.706Z,102088.00
2022-08-29T17:48:37.254Z,102084.00
2022-08-29T17:51:03.905Z,102092.00
2022-08-29T17:53:32.420Z,102100.00
2022-08-29T17:55:59.940Z,102097.00
2022-08-29T17:58:26.444Z,102101.00
2022-08-29T18:00:54.547Z,102098.00
2022-08-29T18:03:21.281Z,102099.00
2022-08-29T18:05:47.723Z,102102.00
2022-08-29T18:08:14.216Z,102103.00
2022-08-29T18:10:40.701Z,102095.00
2022-08-29T18:13:07.234Z,102094.00
2022-08-29T18:15:35.532Z,102083.00
2022-08-29T18:18:02.275Z,102097.00
2022-08-29T18:20:29.018Z,102087.00
2022-08-29T18:22:55.727Z,102093.00
2022-08-29T18:25:22.591Z,102090.00
2022-08-29T18:27:50.298Z,102096.00
2022-08-29T18:30:16.902Z,102090.00
2022-08-29T18:32:43.692Z,102095.00
2022-08-29T18:35:10.613Z,102088.00
2022-08-29T18:37:37.117Z,102104.00
2022-08-29T18:40:04.705Z,102093.00
2022-08-29T18:42:40.529Z,102096.00
2022-08-29T18:45:08.373Z,102094.00
2022-08-29T18:47:34.914Z,102099.00
2022-08-29T18:50:20.050Z,102104.00
2022-08-29T18:52:51.676Z,102107.00
2022-08-29T18:55:18.592Z,102112.00
2022-08-29T18:57:47.134Z,102109.00
2022-08-29T19:00:14.522Z,102115.00
2022-08-29T19:02:41.571Z,102109.00
2022-08-29T19:05:08.516Z,102114.00
2022-08-29T19:07:35.356Z,102108.00
2022-08-29T19:10:02.069Z,102105.00
2022-08-29T19:12:29.106Z,102118.00
2022-08-29T19:14:56.661Z,102118.00
2022-08-29T19:17:23.957Z,102122.00
2022-08-29T19:20:10.281Z,102133.00
2022-08-29T19:22:38.296Z,102142.00
2022-08-29T19:25:05.894Z,102130.00
2022-08-29T19:27:43.253Z,102135.00
2022-08-29T19:30:11.076Z,102144.00
2022-08-29T19:32:37.564Z,102145.00
2022-08-29T19:35:04.234Z,102146.00
2022-08-29T19:37:30.769Z,102142.00
2022-08-29T19:39:57.274Z,102149.00
2022-08-29T19:42:24.196Z,102137.00
2022-08-29T19:44:50.668Z,102150.00
2022-08-29T19:47:17.163Z,102144.00
2022-08-29T19:49:45.464Z,102139.00
2022-08-29T19:52:12.123Z,102135.00
2022-08-29T19:54:38.635Z,102138.00
2022-08-29T19:57:10.013Z,102137.00
2022-08-29T19:59:41.239Z,102128.00
2022-08-29T20:02:09.523Z,102131.00
2022-08-29T20:04:36.462Z,102141.00
2022-08-29T20:07:03.486Z,102134.00
2022-08-29T20:09:30.036Z,102131.00
2022-08-29T20:11:57.227Z,102134.00
2022-08-29T20:14:23.704Z,102131.00
2022-08-29T20:16:51.729Z,102132.00
2022-08-29T20:19:18.989Z,102131.00
2022-08-29T20:21:45.917Z,102132.00
2022-08-29T20:24:16.555Z,102126.00
2022-08-29T20:26:44.735Z,102120.00
2022-08-29T20:29:12.121Z,102121.00
2022-08-29T20:31:38.988Z,102119.00
2022-08-29T20:34:05.632Z,102115.00
2022-08-29T20:36:51.045Z,102116.00
2022-08-29T20:39:18.626Z,102126.00
2022-08-29T20:41:49.052Z,102115.00
2022-08-29T20:44:18.442Z,102118.00
2022-08-29T20:46:45.107Z,102117.00
2022-08-29T20:49:12.724Z,102122.00
2022-08-29T20:51:44.035Z,102117.00
2022-08-29T20:54:11.788Z,102120.00
2022-08-29T20:56:38.361Z,102118.00
2022-08-29T20:59:05.014Z,102119.00
2022-08-29T21:01:32.059Z,102135.00
2022-08-29T21:04:20.803Z,102121.00
2022-08-29T21:06:47.776Z,102117.00
2022-08-29T21:09:14.201Z,102125.00
2022-08-29T21:11:40.666Z,102130.00
2022-08-29T21:14:07.148Z,102121.00
2022-08-29T21:16:33.731Z,102116.00
2022-08-29T21:19:00.893Z,102129.00
2022-08-29T21:21:27.322Z,102120.00
2022-08-29T21:23:53.839Z,102119.00
2022-08-29T21:26:20.393Z,102114.00
2022-08-29T21:28:47.351Z,102118.00
2022-08-29T21:31:14.015Z,102110.00
2022-08-29T21:33:41.803Z,102119.00
2022-08-29T21:36:19.403Z,102119.00
2022-08-29T21:38:46.828Z,102122.00
2022-08-29T21:41:14.060Z,102122.00
2022-08-29T21:43:40.907Z,102128.00
2022-08-29T21:46:17.784Z,102126.00
2022-08-29T21:48:44.461Z,102128.00
2022-08-29T21:51:11.118Z,102131.00
2022-08-29T21:53:37.779Z,102128.00
2022-08-29T21:56:08.281Z,102132.00
2022-08-29T21:58:34.801Z,102129.00
2022-08-29T22:01:01.262Z,102140.00
2022-08-29T22:03:27.773Z,102140.00
2022-08-29T22:05:54.495Z,102144.00
2022-08-29T22:08:21.354Z,102136.00
2022-08-29T22:10:48.358Z,102137.00
2022-08-29T22:13:15.398Z,102135.00
2022-08-29T22:16:00.778Z,102135.00
2022-08-29T22:18:27.392Z,102133.00
2022-08-29T22:20:55.701Z,102132.00
2022-08-29T22:23:24.503Z,102127.00
2022-08-29T22:25:51.136Z,102131.00
2022-08-29T22:28:17.574Z,102118.00
2022-08-29T22:30:44.035Z,102127.00
2022-08-29T22:33:16.161Z,102117.00
2022-08-29T22:35:43.630Z,102119.00
2022-08-29T22:38:10.126Z,102119.00
2022-08-29T22:40:36.646Z,102126.00
2022-08-29T22:43:03.286Z,102117.00
2022-08-29T22:45:29.866Z,102118.00
2022-08-29T22:47:56.412Z,102121.00
2022-08-29T22:50:24.737Z,102111.00
2022-08-29T22:52:54.804Z,102120.00
2022-08-29T22:57:47.308Z,102110.00
2022-08-29T23:00:15.545Z,102117.00
2022-08-29T23:02:42.416Z,102117.00
2022-08-29T23:05:10.029Z,102116.00
2022-08-29T23:07:36.995Z,102120.00
2022-08-29T23:10:04.688Z,102117.00
2022-08-29T23:12:31.212Z,102125.00
2022-08-29T23:14:57.694Z,102116.00
2022-08-29T23:17:24.218Z,102119.00
2022-08-29T23:19:50.760Z,102119.00
2022-08-29T23:22:17.368Z,102119.00
2022-08-29T23:24:54.728Z,102120.00
2022-08-29T23:27:25.903Z,102114.00
2022-08-29T23:29:52.681Z,102117.00
2022-08-29T23:32:19.186Z,102119.00
2022-08-29T23:34:45.700Z,102111.00
2022-08-29T23:37:12.248Z,102102.00
2022-08-29T23:39:38.706Z,102104.00
2022-08-29T23:42:05.392Z,102103.00
2022-08-29T23:44:31.898Z,102107.00
2022-08-29T23:46:58.439Z,102114.00
2022-08-29T23:49:25.235Z,102109.00
2022-08-29T23:51:51.865Z,102103.00
2022-08-29T23:54:19.392Z,102105.00
2022-08-29T23:56:45.815Z,102108.00
2022-08-29T23:59:32.249Z,102097.00
